sensor_id;sensor_type;location;lat;lon;timestamp;P1;durP1;ratioP1;P2;durP2;ratioP2
36403;SDS011;22437;55.646;37.518;2022-07-23T00:00:42;6.57;;;3.63;;
36403;SDS011;22437;55.646;37.518;2022-07-23T00:03:11;6.10;;;3.90;;
36403;SDS011;22437;55.646;37.518;2022-07-23T00:05:39;4.70;;;3.78;;
36403;SDS011;22437;55.646;37.518;2022-07-23T00:08:08;7.70;;;3.80;;
36403;SDS011;22437;55.646;37.518;2022-07-23T00:10:40;9.60;;;3.83;;
36403;SDS011;22437;55.646;37.518;2022-07-23T00:13:11;5.55;;;3.60;;
36403;SDS011;22437;55.646;37.518;2022-07-23T00:15:39;5.32;;;4.00;;
36403;SDS011;22437;55.646;37.518;2022-07-23T00:18:08;7.88;;;4.85;;
36403;SDS011;22437;55.646;37.518;2022-07-23T00:20:37;6.35;;;3.95;;
36403;SDS011;22437;55.646;37.518;2022-07-23T00:23:06;5.80;;;3.60;;
36403;SDS011;22437;55.646;37.518;2022-07-23T00:25:35;6.75;;;3.60;;
36403;SDS011;22437;55.646;37.518;2022-07-23T00:28:04;5.05;;;3.30;;
36403;SDS011;22437;55.646;37.518;2022-07-23T00:30:34;5.88;;;3.28;;
36403;SDS011;22437;55.646;37.518;2022-07-23T00:33:04;10.00;;;4.57;;
36403;SDS011;22437;55.646;37.518;2022-07-23T00:35:35;5.70;;;3.60;;
36403;SDS011;22437;55.646;37.518;2022-07-23T00:38:08;9.07;;;3.75;;
36403;SDS011;22437;55.646;37.518;2022-07-23T00:40:38;6.35;;;3.95;;
36403;SDS011;22437;55.646;37.518;2022-07-23T00:43:07;7.53;;;4.05;;
36403;SDS011;22437;55.646;37.518;2022-07-23T00:45:37;6.13;;;3.97;;
36403;SDS011;22437;55.646;37.518;2022-07-23T00:48:06;9.32;;;5.00;;
36403;SDS011;22437;55.646;37.518;2022-07-23T00:50:35;6.43;;;3.67;;
36403;SDS011;22437;55.646;37.518;2022-07-23T00:53:04;3.72;;;3.33;;
36403;SDS011;22437;55.646;37.518;2022-07-23T00:55:35;5.70;;;3.35;;
36403;SDS011;22437;55.646;37.518;2022-07-23T00:58:04;8.38;;;3.85;;
36403;SDS011;22437;55.646;37.518;2022-07-23T01:00:34;9.57;;;3.33;;
36403;SDS011;22437;55.646;37.518;2022-07-23T01:03:04;5.65;;;3.90;;
36403;SDS011;22437;55.646;37.518;2022-07-23T01:05:34;5.57;;;3.47;;
36403;SDS011;22437;55.646;37.518;2022-07-23T01:08:03;4.88;;;3.55;;
36403;SDS011;22437;55.646;37.518;2022-07-23T01:10:34;5.13;;;3.83;;
36403;SDS011;22437;55.646;37.518;2022-07-23T01:13:04;5.45;;;3.60;;
36403;SDS011;22437;55.646;37.518;2022-07-23T01:15:35;5.90;;;3.42;;
36403;SDS011;22437;55.646;37.518;2022-07-23T01:18:06;7.43;;;4.22;;
36403;SDS011;22437;55.646;37.518;2022-07-23T01:20:37;8.93;;;5.20;;
36403;SDS011;22437;55.646;37.518;2022-07-23T01:23:09;8.45;;;4.70;;
36403;SDS011;22437;55.646;37.518;2022-07-23T01:25:47;7.72;;;4.72;;
36403;SDS011;22437;55.646;37.518;2022-07-23T01:28:17;9.35;;;4.53;;
36403;SDS011;22437;55.646;37.518;2022-07-23T01:30:47;8.48;;;4.50;;
36403;SDS011;22437;55.646;37.518;2022-07-23T01:33:16;11.43;;;4.32;;
36403;SDS011;22437;55.646;37.518;2022-07-23T01:35:44;9.00;;;4.55;;
36403;SDS011;22437;55.646;37.518;2022-07-23T01:38:20;6.75;;;4.55;;
36403;SDS011;22437;55.646;37.518;2022-07-23T01:40:49;11.10;;;4.97;;
36403;SDS011;22437;55.646;37.518;2022-07-23T01:43:26;8.57;;;5.65;;
36403;SDS011;22437;55.646;37.518;2022-07-23T01:45:55;7.32;;;4.40;;
36403;SDS011;22437;55.646;37.518;2022-07-23T01:48:28;8.05;;;4.95;;
36403;SDS011;22437;55.646;37.518;2022-07-23T01:51:17;10.45;;;5.07;;
36403;SDS011;22437;55.646;37.518;2022-07-23T01:53:57;8.85;;;4.93;;
36403;SDS011;22437;55.646;37.518;2022-07-23T01:56:26;9.13;;;4.72;;
36403;SDS011;22437;55.646;37.518;2022-07-23T01:58:55;12.65;;;4.78;;
36403;SDS011;22437;55.646;37.518;2022-07-23T02:01:24;8.63;;;5.20;;
36403;SDS011;22437;55.646;37.518;2022-07-23T02:03:53;8.35;;;5.25;;
36403;SDS011;22437;55.646;37.518;2022-07-23T02:06:22;11.77;;;5.05;;
36403;SDS011;22437;55.646;37.518;2022-07-23T02:08:50;11.00;;;5.35;;
36403;SDS011;22437;55.646;37.518;2022-07-23T02:11:22;6.70;;;4.47;;
36403;SDS011;22437;55.646;37.518;2022-07-23T02:13:53;7.53;;;5.03;;
36403;SDS011;22437;55.646;37.518;2022-07-23T02:16:21;8.38;;;5.03;;
36403;SDS011;22437;55.646;37.518;2022-07-23T02:18:50;12.98;;;5.47;;
36403;SDS011;22437;55.646;37.518;2022-07-23T02:21:19;15.15;;;5.40;;
36403;SDS011;22437;55.646;37.518;2022-07-23T02:23:48;7.22;;;4.80;;
36403;SDS011;22437;55.646;37.518;2022-07-23T02:26:17;11.20;;;4.93;;
36403;SDS011;22437;55.646;37.518;2022-07-23T02:28:51;7.68;;;4.63;;
36403;SDS011;22437;55.646;37.518;2022-07-23T02:31:21;5.72;;;4.47;;
36403;SDS011;22437;55.646;37.518;2022-07-23T02:33:50;9.65;;;5.07;;
36403;SDS011;22437;55.646;37.518;2022-07-23T02:36:18;11.35;;;4.97;;
36403;SDS011;22437;55.646;37.518;2022-07-23T02:38:47;9.05;;;5.30;;
36403;SDS011;22437;55.646;37.518;2022-07-23T02:41:17;14.15;;;5.43;;
36403;SDS011;22437;55.646;37.518;2022-07-23T02:43:46;12.35;;;6.38;;
36403;SDS011;22437;55.646;37.518;2022-07-23T02:46:16;8.93;;;4.60;;
36403;SDS011;22437;55.646;37.518;2022-07-23T02:48:45;8.10;;;4.53;;
36403;SDS011;22437;55.646;37.518;2022-07-23T02:51:14;10.45;;;6.18;;
36403;SDS011;22437;55.646;37.518;2022-07-23T02:53:50;10.25;;;5.45;;
36403;SDS011;22437;55.646;37.518;2022-07-23T02:56:20;12.10;;;5.28;;
36403;SDS011;22437;55.646;37.518;2022-07-23T02:58:49;8.05;;;4.78;;
36403;SDS011;22437;55.646;37.518;2022-07-23T03:01:21;8.75;;;5.30;;
36403;SDS011;22437;55.646;37.518;2022-07-23T03:03:50;6.27;;;5.23;;
36403;SDS011;22437;55.646;37.518;2022-07-23T03:06:21;10.45;;;4.93;;
36403;SDS011;22437;55.646;37.518;2022-07-23T03:08:50;10.05;;;6.38;;
36403;SDS011;22437;55.646;37.518;2022-07-23T03:11:19;9.32;;;5.50;;
36403;SDS011;22437;55.646;37.518;2022-07-23T03:13:48;11.75;;;5.90;;
36403;SDS011;22437;55.646;37.518;2022-07-23T03:16:17;10.65;;;5.97;;
36403;SDS011;22437;55.646;37.518;2022-07-23T03:18:47;9.55;;;5.85;;
36403;SDS011;22437;55.646;37.518;2022-07-23T03:21:16;12.77;;;5.47;;
36403;SDS011;22437;55.646;37.518;2022-07-23T03:23:45;15.73;;;6.40;;
36403;SDS011;22437;55.646;37.518;2022-07-23T03:26:15;8.20;;;5.82;;
36403;SDS011;22437;55.646;37.518;2022-07-23T03:28:43;14.23;;;6.22;;
36403;SDS011;22437;55.646;37.518;2022-07-23T03:31:12;11.98;;;5.75;;
36403;SDS011;22437;55.646;37.518;2022-07-23T03:33:41;8.77;;;5.97;;
36403;SDS011;22437;55.646;37.518;2022-07-23T03:36:12;11.18;;;6.65;;
36403;SDS011;22437;55.646;37.518;2022-07-23T03:38:44;8.45;;;5.70;;
36403;SDS011;22437;55.646;37.518;2022-07-23T03:41:14;10.63;;;6.15;;
36403;SDS011;22437;55.646;37.518;2022-07-23T03:43:43;9.10;;;5.55;;
36403;SDS011;22437;55.646;37.518;2022-07-23T03:46:12;10.40;;;6.05;;
36403;SDS011;22437;55.646;37.518;2022-07-23T03:48:42;11.05;;;5.78;;
36403;SDS011;22437;55.646;37.518;2022-07-23T03:51:12;8.93;;;6.10;;
36403;SDS011;22437;55.646;37.518;2022-07-23T03:53:41;13.82;;;6.25;;
36403;SDS011;22437;55.646;37.518;2022-07-23T03:56:09;9.85;;;5.93;;
36403;SDS011;22437;55.646;37.518;2022-07-23T03:58:38;11.98;;;6.38;;
36403;SDS011;22437;55.646;37.518;2022-07-23T04:01:07;7.78;;;5.78;;
36403;SDS011;22437;55.646;37.518;2022-07-23T04:03:36;10.88;;;6.63;;
36403;SDS011;22437;55.646;37.518;2022-07-23T04:06:05;9.65;;;6.10;;
36403;SDS011;22437;55.646;37.518;2022-07-23T04:08:37;10.07;;;6.03;;
36403;SDS011;22437;55.646;37.518;2022-07-23T04:11:06;10.52;;;6.50;;
36403;SDS011;22437;55.646;37.518;2022-07-23T04:13:35;7.25;;;6.10;;
36403;SDS011;22437;55.646;37.518;2022-07-23T04:16:04;10.95;;;5.68;;
36403;SDS011;22437;55.646;37.518;2022-07-23T04:18:34;11.07;;;5.50;;
36403;SDS011;22437;55.646;37.518;2022-07-23T04:21:13;11.35;;;6.15;;
36403;SDS011;22437;55.646;37.518;2022-07-23T04:23:45;8.20;;;6.25;;
36403;SDS011;22437;55.646;37.518;2022-07-23T04:26:14;9.40;;;5.97;;
36403;SDS011;22437;55.646;37.518;2022-07-23T04:28:45;8.50;;;6.00;;
36403;SDS011;22437;55.646;37.518;2022-07-23T04:31:15;10.70;;;6.45;;
36403;SDS011;22437;55.646;37.518;2022-07-23T04:33:44;18.23;;;6.57;;
36403;SDS011;22437;55.646;37.518;2022-07-23T04:36:13;11.00;;;6.50;;
36403;SDS011;22437;55.646;37.518;2022-07-23T04:38:42;9.90;;;6.50;;
36403;SDS011;22437;55.646;37.518;2022-07-23T04:41:19;13.93;;;6.22;;
36403;SDS011;22437;55.646;37.518;2022-07-23T04:43:49;8.83;;;5.97;;
36403;SDS011;22437;55.646;37.518;2022-07-23T04:46:17;11.20;;;6.75;;
36403;SDS011;22437;55.646;37.518;2022-07-23T04:48:50;12.30;;;6.80;;
36403;SDS011;22437;55.646;37.518;2022-07-23T04:51:18;8.13;;;5.65;;
36403;SDS011;22437;55.646;37.518;2022-07-23T04:53:47;12.98;;;6.32;;
36403;SDS011;22437;55.646;37.518;2022-07-23T04:56:17;10.85;;;6.38;;
36403;SDS011;22437;55.646;37.518;2022-07-23T04:58:47;11.40;;;6.43;;
36403;SDS011;22437;55.646;37.518;2022-07-23T05:01:16;11.70;;;6.40;;
36403;SDS011;22437;55.646;37.518;2022-07-23T05:03:45;9.65;;;6.28;;
36403;SDS011;22437;55.646;37.518;2022-07-23T05:06:15;11.73;;;6.50;;
36403;SDS011;22437;55.646;37.518;2022-07-23T05:08:44;10.73;;;6.70;;
36403;SDS011;22437;55.646;37.518;2022-07-23T05:11:13;12.80;;;6.30;;
36403;SDS011;22437;55.646;37.518;2022-07-23T05:13:42;10.65;;;5.95;;
36403;SDS011;22437;55.646;37.518;2022-07-23T05:16:12;9.00;;;5.70;;
36403;SDS011;22437;55.646;37.518;2022-07-23T05:18:42;11.73;;;7.43;;
36403;SDS011;22437;55.646;37.518;2022-07-23T05:21:11;12.25;;;6.28;;
36403;SDS011;22437;55.646;37.518;2022-07-23T05:23:40;9.82;;;5.93;;
36403;SDS011;22437;55.646;37.518;2022-07-23T05:26:09;7.65;;;6.32;;
36403;SDS011;22437;55.646;37.518;2022-07-23T05:28:38;11.13;;;6.47;;
36403;SDS011;22437;55.646;37.518;2022-07-23T05:31:13;9.88;;;5.95;;
36403;SDS011;22437;55.646;37.518;2022-07-23T05:33:42;8.17;;;6.00;;
36403;SDS011;22437;55.646;37.518;2022-07-23T05:36:11;12.93;;;6.20;;
36403;SDS011;22437;55.646;37.518;2022-07-23T05:38:54;9.80;;;5.80;;
36403;SDS011;22437;55.646;37.518;2022-07-23T05:41:23;13.55;;;5.68;;
36403;SDS011;22437;55.646;37.518;2022-07-23T05:43:52;6.82;;;6.00;;
36403;SDS011;22437;55.646;37.518;2022-07-23T05:46:23;9.05;;;5.95;;
36403;SDS011;22437;55.646;37.518;2022-07-23T05:48:56;10.93;;;6.32;;
36403;SDS011;22437;55.646;37.518;2022-07-23T05:51:44;9.43;;;5.53;;
36403;SDS011;22437;55.646;37.518;2022-07-23T05:54:18;9.15;;;5.32;;
36403;SDS011;22437;55.646;37.518;2022-07-23T05:56:47;6.80;;;5.57;;
36403;SDS011;22437;55.646;37.518;2022-07-23T05:59:17;9.35;;;5.72;;
36403;SDS011;22437;55.646;37.518;2022-07-23T06:01:47;11.10;;;5.60;;
36403;SDS011;22437;55.646;37.518;2022-07-23T06:04:16;9.50;;;6.10;;
36403;SDS011;22437;55.646;37.518;2022-07-23T06:06:57;9.63;;;6.78;;
36403;SDS011;22437;55.646;37.518;2022-07-23T06:09:26;8.52;;;6.28;;
36403;SDS011;22437;55.646;37.518;2022-07-23T06:11:55;7.22;;;5.47;;
36403;SDS011;22437;55.646;37.518;2022-07-23T06:14:24;7.95;;;5.75;;
36403;SDS011;22437;55.646;37.518;2022-07-23T06:16:57;9.13;;;6.18;;
36403;SDS011;22437;55.646;37.518;2022-07-23T06:19:26;8.93;;;5.70;;
36403;SDS011;22437;55.646;37.518;2022-07-23T06:21:55;8.75;;;6.00;;
36403;SDS011;22437;55.646;37.518;2022-07-23T06:24:26;9.55;;;6.38;;
36403;SDS011;22437;55.646;37.518;2022-07-23T06:26:55;12.70;;;6.55;;
36403;SDS011;22437;55.646;37.518;2022-07-23T06:29:24;10.68;;;5.85;;
36403;SDS011;22437;55.646;37.518;2022-07-23T06:31:53;8.57;;;5.68;;
36403;SDS011;22437;55.646;37.518;2022-07-23T06:34:24;6.90;;;6.10;;
36403;SDS011;22437;55.646;37.518;2022-07-23T06:36:55;13.38;;;6.57;;
36403;SDS011;22437;55.646;37.518;2022-07-23T06:39:25;8.40;;;6.50;;
36403;SDS011;22437;55.646;37.518;2022-07-23T06:44:47;10.48;;;6.30;;
36403;SDS011;22437;55.646;37.518;2022-07-23T06:47:16;9.55;;;6.15;;
36403;SDS011;22437;55.646;37.518;2022-07-23T06:49:47;8.55;;;6.60;;
36403;SDS011;22437;55.646;37.518;2022-07-23T06:52:16;8.43;;;5.95;;
36403;SDS011;22437;55.646;37.518;2022-07-23T06:54:45;8.60;;;6.28;;
36403;SDS011;22437;55.646;37.518;2022-07-23T06:57:14;8.52;;;5.93;;
36403;SDS011;22437;55.646;37.518;2022-07-23T06:59:43;10.23;;;6.50;;
36403;SDS011;22437;55.646;37.518;2022-07-23T07:02:18;11.20;;;7.53;;
36403;SDS011;22437;55.646;37.518;2022-07-23T07:04:48;9.60;;;6.07;;
36403;SDS011;22437;55.646;37.518;2022-07-23T07:07:17;9.43;;;6.35;;
36403;SDS011;22437;55.646;37.518;2022-07-23T07:09:46;8.82;;;5.70;;
36403;SDS011;22437;55.646;37.518;2022-07-23T07:12:15;9.27;;;5.80;;
36403;SDS011;22437;55.646;37.518;2022-07-23T07:14:44;7.53;;;5.28;;
36403;SDS011;22437;55.646;37.518;2022-07-23T07:17:13;8.05;;;5.68;;
36403;SDS011;22437;55.646;37.518;2022-07-23T07:19:42;8.77;;;5.30;;
36403;SDS011;22437;55.646;37.518;2022-07-23T07:22:13;8.38;;;5.57;;
36403;SDS011;22437;55.646;37.518;2022-07-23T07:24:42;6.88;;;5.07;;
36403;SDS011;22437;55.646;37.518;2022-07-23T07:27:10;7.55;;;5.93;;
36403;SDS011;22437;55.646;37.518;2022-07-23T07:29:41;7.00;;;5.82;;
36403;SDS011;22437;55.646;37.518;2022-07-23T07:32:11;8.48;;;6.25;;
36403;SDS011;22437;55.646;37.518;2022-07-23T07:34:59;8.70;;;6.20;;
36403;SDS011;22437;55.646;37.518;2022-07-23T07:37:30;8.00;;;6.10;;
36403;SDS011;22437;55.646;37.518;2022-07-23T07:39:59;10.50;;;6.22;;
36403;SDS011;22437;55.646;37.518;2022-07-23T07:42:29;8.15;;;5.35;;
36403;SDS011;22437;55.646;37.518;2022-07-23T07:44:59;10.20;;;7.10;;
36403;SDS011;22437;55.646;37.518;2022-07-23T07:47:28;6.85;;;5.95;;
36403;SDS011;22437;55.646;37.518;2022-07-23T07:49:57;10.60;;;6.60;;
36403;SDS011;22437;55.646;37.518;2022-07-23T07:52:25;6.40;;;5.40;;
36403;SDS011;22437;55.646;37.518;2022-07-23T07:54:56;9.93;;;5.05;;
36403;SDS011;22437;55.646;37.518;2022-07-23T07:59:57;10.32;;;6.32;;
36403;SDS011;22437;55.646;37.518;2022-07-23T08:02:41;8.27;;;6.00;;
36403;SDS011;22437;55.646;37.518;2022-07-23T08:05:11;8.23;;;5.45;;
36403;SDS011;22437;55.646;37.518;2022-07-23T08:07:41;9.55;;;5.88;;
36403;SDS011;22437;55.646;37.518;2022-07-23T08:10:11;7.97;;;6.10;;
36403;SDS011;22437;55.646;37.518;2022-07-23T08:12:41;7.47;;;5.68;;
36403;SDS011;22437;55.646;37.518;2022-07-23T08:15:12;10.05;;;5.60;;
36403;SDS011;22437;55.646;37.518;2022-07-23T08:17:42;8.95;;;6.90;;
36403;SDS011;22437;55.646;37.518;2022-07-23T08:20:13;9.17;;;6.63;;
36403;SDS011;22437;55.646;37.518;2022-07-23T08:22:46;9.30;;;6.03;;
36403;SDS011;22437;55.646;37.518;2022-07-23T08:25:19;7.80;;;5.63;;
36403;SDS011;22437;55.646;37.518;2022-07-23T08:27:49;7.25;;;6.18;;
36403;SDS011;22437;55.646;37.518;2022-07-23T08:30:19;10.15;;;9.13;;
36403;SDS011;22437;55.646;37.518;2022-07-23T08:32:52;10.85;;;9.68;;
36403;SDS011;22437;55.646;37.518;2022-07-23T08:35:24;9.20;;;7.88;;
36403;SDS011;22437;55.646;37.518;2022-07-23T08:37:55;10.30;;;6.70;;
36403;SDS011;22437;55.646;37.518;2022-07-23T08:40:27;8.50;;;6.00;;
36403;SDS011;22437;55.646;37.518;2022-07-23T08:42:58;9.43;;;5.80;;
36403;SDS011;22437;55.646;37.518;2022-07-23T08:45:27;12.07;;;5.77;;
36403;SDS011;22437;55.646;37.518;2022-07-23T08:47:56;9.32;;;7.18;;
36403;SDS011;22437;55.646;37.518;2022-07-23T08:50:31;6.88;;;6.10;;
36403;SDS011;22437;55.646;37.518;2022-07-23T08:53:08;9.50;;;6.93;;
36403;SDS011;22437;55.646;37.518;2022-07-23T08:55:40;9.27;;;8.35;;
36403;SDS011;22437;55.646;37.518;2022-07-23T08:58:11;10.27;;;9.15;;
36403;SDS011;22437;55.646;37.518;2022-07-23T09:00:41;6.68;;;6.00;;
36403;SDS011;22437;55.646;37.518;2022-07-23T09:03:12;7.65;;;6.30;;
36403;SDS011;22437;55.646;37.518;2022-07-23T09:05:44;13.48;;;12.13;;
36403;SDS011;22437;55.646;37.518;2022-07-23T09:08:14;8.32;;;6.63;;
36403;SDS011;22437;55.646;37.518;2022-07-23T09:10:46;8.68;;;7.60;;
36403;SDS011;22437;55.646;37.518;2022-07-23T09:13:23;8.10;;;7.32;;
36403;SDS011;22437;55.646;37.518;2022-07-23T09:15:54;10.43;;;7.30;;
36403;SDS011;22437;55.646;37.518;2022-07-23T09:18:32;9.73;;;6.78;;
36403;SDS011;22437;55.646;37.518;2022-07-23T09:21:05;8.07;;;6.88;;
36403;SDS011;22437;55.646;37.518;2022-07-23T09:23:40;7.07;;;6.25;;
36403;SDS011;22437;55.646;37.518;2022-07-23T09:26:19;7.53;;;6.72;;
36403;SDS011;22437;55.646;37.518;2022-07-23T09:28:54;8.00;;;6.60;;
36403;SDS011;22437;55.646;37.518;2022-07-23T09:31:25;8.57;;;7.15;;
36403;SDS011;22437;55.646;37.518;2022-07-23T09:34:06;8.30;;;7.13;;
36403;SDS011;22437;55.646;37.518;2022-07-23T09:36:37;10.05;;;6.75;;
36403;SDS011;22437;55.646;37.518;2022-07-23T09:39:07;9.40;;;7.25;;
36403;SDS011;22437;55.646;37.518;2022-07-23T09:41:39;9.98;;;7.15;;
36403;SDS011;22437;55.646;37.518;2022-07-23T09:44:13;8.32;;;6.68;;
36403;SDS011;22437;55.646;37.518;2022-07-23T09:46:44;8.18;;;6.78;;
36403;SDS011;22437;55.646;37.518;2022-07-23T09:49:18;11.27;;;6.37;;
36403;SDS011;22437;55.646;37.518;2022-07-23T09:51:52;8.88;;;6.63;;
36403;SDS011;22437;55.646;37.518;2022-07-23T09:54:24;6.60;;;5.88;;
36403;SDS011;22437;55.646;37.518;2022-07-23T09:56:57;7.35;;;6.65;;
36403;SDS011;22437;55.646;37.518;2022-07-23T09:59:29;9.63;;;6.57;;
36403;SDS011;22437;55.646;37.518;2022-07-23T10:02:00;7.85;;;6.05;;
36403;SDS011;22437;55.646;37.518;2022-07-23T10:04:35;8.20;;;7.03;;
36403;SDS011;22437;55.646;37.518;2022-07-23T10:07:21;7.68;;;6.88;;
36403;SDS011;22437;55.646;37.518;2022-07-23T10:10:14;7.07;;;6.32;;
36403;SDS011;22437;55.646;37.518;2022-07-23T10:13:11;8.55;;;7.20;;
36403;SDS011;22437;55.646;37.518;2022-07-23T10:15:54;9.35;;;7.38;;
36403;SDS011;22437;55.646;37.518;2022-07-23T10:18:22;13.65;;;10.85;;
36403;SDS011;22437;55.646;37.518;2022-07-23T10:20:51;8.50;;;7.70;;
36403;SDS011;22437;55.646;37.518;2022-07-23T10:23:23;8.02;;;7.20;;
36403;SDS011;22437;55.646;37.518;2022-07-23T10:25:57;7.97;;;7.25;;
36403;SDS011;22437;55.646;37.518;2022-07-23T10:28:50;8.43;;;7.63;;
36403;SDS011;22437;55.646;37.518;2022-07-23T10:31:35;11.23;;;7.20;;
36403;SDS011;22437;55.646;37.518;2022-07-23T10:34:30;7.43;;;6.72;;
36403;SDS011;22437;55.646;37.518;2022-07-23T10:37:12;9.35;;;7.18;;
36403;SDS011;22437;55.646;37.518;2022-07-23T10:39:48;10.60;;;7.13;;
36403;SDS011;22437;55.646;37.518;2022-07-23T10:42:36;8.07;;;7.07;;
36403;SDS011;22437;55.646;37.518;2022-07-23T10:48:14;7.45;;;6.72;;
36403;SDS011;22437;55.646;37.518;2022-07-23T10:51:06;9.82;;;7.60;;
36403;SDS011;22437;55.646;37.518;2022-07-23T10:53:56;9.27;;;7.22;;
36403;SDS011;22437;55.646;37.518;2022-07-23T11:02:43;8.75;;;7.80;;
36403;SDS011;22437;55.646;37.518;2022-07-23T11:05:14;10.68;;;7.40;;
36403;SDS011;22437;55.646;37.518;2022-07-23T11:10:48;14.30;;;6.80;;
36403;SDS011;22437;55.646;37.518;2022-07-23T11:13:31;12.68;;;11.40;;
36403;SDS011;22437;55.646;37.518;2022-07-23T11:16:06;7.88;;;6.93;;
36403;SDS011;22437;55.646;37.518;2022-07-23T11:18:54;8.23;;;7.25;;
36403;SDS011;22437;55.646;37.518;2022-07-23T11:21:41;8.93;;;7.72;;
36403;SDS011;22437;55.646;37.518;2022-07-23T11:24:14;7.45;;;6.75;;
36403;SDS011;22437;55.646;37.518;2022-07-23T11:26:46;8.10;;;7.25;;
36403;SDS011;22437;55.646;37.518;2022-07-23T11:29:42;7.65;;;6.85;;
36403;SDS011;22437;55.646;37.518;2022-07-23T11:35:19;10.05;;;7.28;;
36403;SDS011;22437;55.646;37.518;2022-07-23T11:37:56;8.18;;;7.13;;
36403;SDS011;22437;55.646;37.518;2022-07-23T11:40:32;9.38;;;6.82;;
36403;SDS011;22437;55.646;37.518;2022-07-23T11:43:02;8.23;;;7.43;;
36403;SDS011;22437;55.646;37.518;2022-07-23T11:48:03;9.30;;;6.90;;
36403;SDS011;22437;55.646;37.518;2022-07-23T11:50:35;8.77;;;7.43;;
36403;SDS011;22437;55.646;37.518;2022-07-23T11:53:04;9.32;;;7.45;;
36403;SDS011;22437;55.646;37.518;2022-07-23T11:55:33;7.65;;;6.78;;
36403;SDS011;22437;55.646;37.518;2022-07-23T11:58:02;8.25;;;7.40;;
36403;SDS011;22437;55.646;37.518;2022-07-23T12:00:31;9.52;;;6.95;;
36403;SDS011;22437;55.646;37.518;2022-07-23T12:03:06;8.10;;;6.95;;
36403;SDS011;22437;55.646;37.518;2022-07-23T12:05:38;8.60;;;7.20;;
36403;SDS011;22437;55.646;37.518;2022-07-23T12:08:08;8.85;;;7.07;;
36403;SDS011;22437;55.646;37.518;2022-07-23T12:13:10;9.45;;;7.53;;
36403;SDS011;22437;55.646;37.518;2022-07-23T12:15:41;8.10;;;7.30;;
36403;SDS011;22437;55.646;37.518;2022-07-23T12:18:12;7.47;;;6.15;;
36403;SDS011;22437;55.646;37.518;2022-07-23T12:20:46;7.45;;;6.60;;
36403;SDS011;22437;55.646;37.518;2022-07-23T12:23:17;8.20;;;7.40;;
36403;SDS011;22437;55.646;37.518;2022-07-23T12:25:48;8.15;;;7.35;;
36403;SDS011;22437;55.646;37.518;2022-07-23T12:28:18;10.45;;;7.40;;
36403;SDS011;22437;55.646;37.518;2022-07-23T12:30:50;8.40;;;7.00;;
36403;SDS011;22437;55.646;37.518;2022-07-23T12:33:21;8.68;;;6.93;;
36403;SDS011;22437;55.646;37.518;2022-07-23T12:35:54;9.32;;;7.60;;
36403;SDS011;22437;55.646;37.518;2022-07-23T12:38:24;7.13;;;6.43;;
36403;SDS011;22437;55.646;37.518;2022-07-23T12:40:55;8.93;;;6.65;;
36403;SDS011;22437;55.646;37.518;2022-07-23T12:43:27;6.97;;;6.28;;
36403;SDS011;22437;55.646;37.518;2022-07-23T12:46:02;9.93;;;6.97;;
36403;SDS011;22437;55.646;37.518;2022-07-23T12:48:33;8.38;;;6.78;;
36403;SDS011;22437;55.646;37.518;2022-07-23T12:51:06;8.45;;;6.40;;
36403;SDS011;22437;55.646;37.518;2022-07-23T12:53:47;7.97;;;6.05;;
36403;SDS011;22437;55.646;37.518;2022-07-23T12:56:18;8.40;;;6.22;;
36403;SDS011;22437;55.646;37.518;2022-07-23T12:58:49;11.25;;;6.68;;
36403;SDS011;22437;55.646;37.518;2022-07-23T13:03:56;7.88;;;6.78;;
36403;SDS011;22437;55.646;37.518;2022-07-23T13:06:29;9.13;;;7.20;;
36403;SDS011;22437;55.646;37.518;2022-07-23T13:08:59;8.25;;;6.57;;
36403;SDS011;22437;55.646;37.518;2022-07-23T13:11:31;8.07;;;6.60;;
36403;SDS011;22437;55.646;37.518;2022-07-23T13:14:00;7.78;;;6.85;;
36403;SDS011;22437;55.646;37.518;2022-07-23T13:16:32;8.13;;;6.65;;
36403;SDS011;22437;55.646;37.518;2022-07-23T13:19:01;7.05;;;6.35;;
36403;SDS011;22437;55.646;37.518;2022-07-23T13:21:32;8.85;;;7.32;;
36403;SDS011;22437;55.646;37.518;2022-07-23T13:24:01;11.13;;;7.53;;
36403;SDS011;22437;55.646;37.518;2022-07-23T13:26:35;9.02;;;7.50;;
36403;SDS011;22437;55.646;37.518;2022-07-23T13:29:05;8.02;;;7.00;;
36403;SDS011;22437;55.646;37.518;2022-07-23T13:31:36;7.22;;;6.25;;
36403;SDS011;22437;55.646;37.518;2022-07-23T13:34:06;7.78;;;6.35;;
36403;SDS011;22437;55.646;37.518;2022-07-23T13:36:36;7.72;;;6.60;;
36403;SDS011;22437;55.646;37.518;2022-07-23T13:39:05;8.45;;;6.60;;
36403;SDS011;22437;55.646;37.518;2022-07-23T13:41:54;8.05;;;6.82;;
36403;SDS011;22437;55.646;37.518;2022-07-23T13:44:25;8.45;;;6.55;;
36403;SDS011;22437;55.646;37.518;2022-07-23T13:46:55;8.85;;;6.97;;
36403;SDS011;22437;55.646;37.518;2022-07-23T13:49:24;8.18;;;6.60;;
36403;SDS011;22437;55.646;37.518;2022-07-23T13:51:54;11.38;;;7.15;;
36403;SDS011;22437;55.646;37.518;2022-07-23T13:54:25;11.60;;;6.63;;
36403;SDS011;22437;55.646;37.518;2022-07-23T13:56:54;7.20;;;6.47;;
36403;SDS011;22437;55.646;37.518;2022-07-23T13:59:23;9.88;;;6.72;;
36403;SDS011;22437;55.646;37.518;2022-07-23T14:01:52;9.52;;;6.88;;
36403;SDS011;22437;55.646;37.518;2022-07-23T14:04:41;7.50;;;6.50;;
36403;SDS011;22437;55.646;37.518;2022-07-23T14:07:12;14.88;;;6.32;;
36403;SDS011;22437;55.646;37.518;2022-07-23T14:09:42;10.88;;;7.40;;
36403;SDS011;22437;55.646;37.518;2022-07-23T14:12:12;7.32;;;6.40;;
36403;SDS011;22437;55.646;37.518;2022-07-23T14:14:43;7.63;;;6.25;;
36403;SDS011;22437;55.646;37.518;2022-07-23T14:17:12;9.23;;;7.13;;
36403;SDS011;22437;55.646;37.518;2022-07-23T14:19:41;9.00;;;6.47;;
36403;SDS011;22437;55.646;37.518;2022-07-23T14:22:13;7.93;;;6.20;;
36403;SDS011;22437;55.646;37.518;2022-07-23T14:24:42;8.93;;;6.68;;
36403;SDS011;22437;55.646;37.518;2022-07-23T14:27:11;9.77;;;6.32;;
36403;SDS011;22437;55.646;37.518;2022-07-23T14:29:41;7.47;;;6.57;;
36403;SDS011;22437;55.646;37.518;2022-07-23T14:32:10;7.30;;;6.60;;
36403;SDS011;22437;55.646;37.518;2022-07-23T14:34:39;8.63;;;5.90;;
36403;SDS011;22437;55.646;37.518;2022-07-23T14:37:09;8.45;;;6.45;;
36403;SDS011;22437;55.646;37.518;2022-07-23T14:39:43;8.05;;;5.85;;
36403;SDS011;22437;55.646;37.518;2022-07-23T14:42:16;9.35;;;7.30;;
36403;SDS011;22437;55.646;37.518;2022-07-23T14:44:45;9.25;;;6.30;;
36403;SDS011;22437;55.646;37.518;2022-07-23T14:47:14;7.50;;;6.40;;
36403;SDS011;22437;55.646;37.518;2022-07-23T14:49:47;9.15;;;7.00;;
36403;SDS011;22437;55.646;37.518;2022-07-23T14:52:16;9.80;;;6.97;;
36403;SDS011;22437;55.646;37.518;2022-07-23T14:54:47;7.32;;;6.50;;
36403;SDS011;22437;55.646;37.518;2022-07-23T14:57:16;6.57;;;5.93;;
36403;SDS011;22437;55.646;37.518;2022-07-23T14:59:52;8.93;;;6.35;;
36403;SDS011;22437;55.646;37.518;2022-07-23T15:02:22;7.28;;;6.13;;
36403;SDS011;22437;55.646;37.518;2022-07-23T15:04:51;8.63;;;6.55;;
36403;SDS011;22437;55.646;37.518;2022-07-23T15:07:20;6.60;;;5.93;;
36403;SDS011;22437;55.646;37.518;2022-07-23T15:09:54;8.73;;;6.65;;
36403;SDS011;22437;55.646;37.518;2022-07-23T15:12:23;6.45;;;5.80;;
36403;SDS011;22437;55.646;37.518;2022-07-23T15:14:52;9.30;;;6.00;;
36403;SDS011;22437;55.646;37.518;2022-07-23T15:17:21;9.13;;;6.43;;
36403;SDS011;22437;55.646;37.518;2022-07-23T15:19:52;7.63;;;6.45;;
36403;SDS011;22437;55.646;37.518;2022-07-23T15:22:21;10.23;;;6.60;;
36403;SDS011;22437;55.646;37.518;2022-07-23T15:24:50;9.23;;;7.18;;